sensor_id;sensor_type;location;lat;lon;timestamp;pressure;altitude;pressure_sealevel;temperature;humidity
39309;BME280;26019;47.510;19.122;2022-07-10T00:00:20;100266.97;;;19.09;58.64
39309;BME280;26019;47.510;19.122;2022-07-10T00:10:24;100262.59;;;18.87;62.35
39309;BME280;26019;47.510;19.122;2022-07-10T00:20:26;100251.63;;;18.77;65.54
39309;BME280;26019;47.510;19.122;2022-07-10T00:30:28;100246.75;;;18.47;70.32
39309;BME280;26019;47.510;19.122;2022-07-10T00:40:30;100251.31;;;18.20;73.63
39309;BME280;26019;47.510;19.122;2022-07-10T00:50:32;100249.84;;;18.13;75.26
39309;BME280;26019;47.510;19.122;2022-07-10T01:00:36;100237.31;;;17.97;77.66
39309;BME280;26019;47.510;19.122;2022-07-10T01:10:42;100224.25;;;17.97;78.19
39309;BME280;26019;47.510;19.122;2022-07-10T01:20:44;100229.97;;;17.85;79.79
39309;BME280;26019;47.510;19.122;2022-07-10T01:30:48;100224.16;;;17.76;81.62
39309;BME280;26019;47.510;19.122;2022-07-10T01:40:52;100217.28;;;17.50;83.87
39309;BME280;26019;47.510;19.122;2022-07-10T01:50:53;100202.00;;;17.39;86.07
39309;BME280;26019;47.510;19.122;2022-07-10T02:00:58;100197.13;;;17.05;89.83
39309;BME280;26019;47.510;19.122;2022-07-10T02:11:00;100191.66;;;16.85;93.03
39309;BME280;26019;47.510;19.122;2022-07-10T02:21:02;100189.38;;;16.76;94.80
39309;BME280;26019;47.510;19.122;2022-07-10T02:31:10;100185.16;;;16.72;95.69
39309;BME280;26019;47.510;19.122;2022-07-10T02:41:13;100202.63;;;16.70;96.84
39309;BME280;26019;47.510;19.122;2022-07-10T02:51:17;100190.47;;;16.42;100.00
39309;BME280;26019;47.510;19.122;2022-07-10T03:01:19;100188.56;;;16.20;100.00
39309;BME280;26019;47.510;19.122;2022-07-10T03:11:24;100168.00;;;16.11;100.00
39309;BME280;26019;47.510;19.122;2022-07-10T03:21:26;100189.84;;;16.07;100.00
39309;BME280;26019;47.510;19.122;2022-07-10T03:31:28;100179.47;;;16.05;100.00
39309;BME280;26019;47.510;19.122;2022-07-10T03:41:30;100190.13;;;15.97;100.00
39309;BME280;26019;47.510;19.122;2022-07-10T03:51:32;100173.66;;;15.95;100.00
39309;BME280;26019;47.510;19.122;2022-07-10T04:01:34;100166.22;;;16.11;100.00
39309;BME280;26019;47.510;19.122;2022-07-10T04:11:38;100155.34;;;16.25;100.00
39309;BME280;26019;47.510;19.122;2022-07-10T04:21:41;100152.06;;;16.47;100.00
39309;BME280;26019;47.510;19.122;2022-07-10T04:31:46;100146.06;;;16.45;100.00
39309;BME280;26019;47.510;19.122;2022-07-10T04:41:48;100139.56;;;16.57;100.00
39309;BME280;26019;47.510;19.122;2022-07-10T04:51:51;100136.59;;;16.68;100.00
39309;BME280;26019;47.510;19.122;2022-07-10T05:01:53;100134.78;;;16.70;100.00
39309;BME280;26019;47.510;19.122;2022-07-10T05:11:56;100120.06;;;16.93;100.00
39309;BME280;26019;47.510;19.122;2022-07-10T05:21:59;100130.69;;;17.13;98.36
39309;BME280;26019;47.510;19.122;2022-07-10T05:32:00;100131.31;;;17.44;96.83
39309;BME280;26019;47.510;19.122;2022-07-10T05:42:03;100120.66;;;17.95;91.21
39309;BME280;26019;47.510;19.122;2022-07-10T05:52:06;100128.66;;;17.90;91.18
39309;BME280;26019;47.510;19.122;2022-07-10T06:02:08;100124.69;;;18.03;90.28
39309;BME280;26019;47.510;19.122;2022-07-10T06:12:11;100116.78;;;18.69;86.78
39309;BME280;26019;47.510;19.122;2022-07-10T06:22:14;100115.34;;;18.61;85.41
39309;BME280;26019;47.510;19.122;2022-07-10T06:32:32;100124.91;;;19.04;78.87
39309;BME280;26019;47.510;19.122;2022-07-10T06:42:34;100118.19;;;19.17;78.86
39309;BME280;26019;47.510;19.122;2022-07-10T06:52:42;100123.16;;;19.62;73.49
39309;BME280;26019;47.510;19.122;2022-07-10T07:02:44;100105.63;;;20.01;70.96
39309;BME280;26019;47.510;19.122;2022-07-10T07:22:00;100107.84;;;20.96;59.40
39309;BME280;26019;47.510;19.122;2022-07-10T07:32:28;100107.88;;;21.28;57.87
39309;BME280;26019;47.510;19.122;2022-07-10T07:42:30;100105.53;;;21.24;57.00
39309;BME280;26019;47.510;19.122;2022-07-10T07:52:32;100099.88;;;21.63;52.10
39309;BME280;26019;47.510;19.122;2022-07-10T08:02:37;100096.56;;;21.76;50.44
39309;BME280;26019;47.510;19.122;2022-07-10T08:18:53;100085.03;;;22.40;46.91
39309;BME280;26019;47.510;19.122;2022-07-10T08:28:55;100084.28;;;22.07;49.16
39309;BME280;26019;47.510;19.122;2022-07-10T08:38:57;100093.09;;;23.39;44.54
39309;BME280;26019;47.510;19.122;2022-07-10T08:49:05;100090.97;;;24.14;41.78
39309;BME280;26019;47.510;19.122;2022-07-10T08:59:12;100096.09;;;22.90;48.84
39309;BME280;26019;47.510;19.122;2022-07-10T09:09:15;100078.53;;;23.89;39.39
39309;BME280;26019;47.510;19.122;2022-07-10T09:19:24;100079.38;;;25.07;36.00
39309;BME280;26019;47.510;19.122;2022-07-10T09:29:26;100087.91;;;23.80;40.75
39309;BME280;26019;47.510;19.122;2022-07-10T09:39:28;100056.47;;;25.32;37.05
39309;BME280;26019;47.510;19.122;2022-07-10T09:49:30;100050.88;;;27.46;31.33
39309;BME280;26019;47.510;19.122;2022-07-10T09:59:33;100052.84;;;28.30;31.02
39309;BME280;26019;47.510;19.122;2022-07-10T10:09:41;100047.03;;;26.25;34.43
39309;BME280;26019;47.510;19.122;2022-07-10T10:19:47;100036.19;;;25.81;34.39
39309;BME280;26019;47.510;19.122;2022-07-10T10:30:10;100029.97;;;26.29;33.23
39309;BME280;26019;47.510;19.122;2022-07-10T10:40:31;100019.31;;;28.70;28.96
39309;BME280;26019;47.510;19.122;2022-07-10T10:50:46;100006.69;;;27.89;28.82
39309;BME280;26019;47.510;19.122;2022-07-10T11:00:49;100001.28;;;29.34;26.06
39309;BME280;26019;47.510;19.122;2022-07-10T11:10:50;99992.44;;;30.13;24.38
39309;BME280;26019;47.510;19.122;2022-07-10T11:21:00;99985.47;;;31.78;21.97
39309;BME280;26019;47.510;19.122;2022-07-10T11:31:05;99999.16;;;31.10;22.58
39309;BME280;26019;47.510;19.122;2022-07-10T11:41:18;100001.31;;;29.74;24.14
39309;BME280;26019;47.510;19.122;2022-07-10T11:51:28;99995.19;;;33.50;19.64
39309;BME280;26019;47.510;19.122;2022-07-10T12:01:33;100027.06;;;30.50;24.24
39309;BME280;26019;47.510;19.122;2022-07-10T12:11:41;100027.09;;;29.44;24.98
39309;BME280;26019;47.510;19.122;2022-07-10T12:21:47;100032.25;;;34.61;19.88
39309;BME280;26019;47.510;19.122;2022-07-10T12:32:02;100017.75;;;36.49;17.33
39309;BME280;26019;47.510;19.122;2022-07-10T12:42:06;100041.19;;;32.78;20.25
39309;BME280;26019;47.510;19.122;2022-07-10T12:52:19;100043.75;;;32.96;19.63
39309;BME280;26019;47.510;19.122;2022-07-10T13:02:21;100049.78;;;33.74;19.28
39309;BME280;26019;47.510;19.122;2022-07-10T13:12:23;100035.66;;;34.30;17.63
39309;BME280;26019;47.510;19.122;2022-07-10T13:22:25;100035.31;;;34.33;17.68
39309;BME280;26019;47.510;19.122;2022-07-10T13:32:28;100057.94;;;34.95;17.17
39309;BME280;26019;47.510;19.122;2022-07-10T13:42:30;100051.25;;;35.93;16.36
39309;BME280;26019;47.510;19.122;2022-07-10T13:52:32;100037.50;;;30.81;20.13
39309;BME280;26019;47.510;19.122;2022-07-10T14:02:34;100044.34;;;36.28;15.10
39309;BME280;26019;47.510;19.122;2022-07-10T14:12:38;100054.78;;;34.83;15.02
39309;BME280;26019;47.510;19.122;2022-07-10T14:22:40;100036.91;;;35.07;14.11
39309;BME280;26019;47.510;19.122;2022-07-10T14:32:46;100035.16;;;35.23;14.00
39309;BME280;26019;47.510;19.122;2022-07-10T14:42:50;100038.00;;;35.21;14.49
39309;BME280;26019;47.510;19.122;2022-07-10T14:52:56;100044.00;;;34.52;15.24
39309;BME280;26019;47.510;19.122;2022-07-10T15:02:57;100063.06;;;35.37;14.44
39309;BME280;26019;47.510;19.122;2022-07-10T15:13:05;100081.72;;;34.42;14.77
39309;BME280;26019;47.510;19.122;2022-07-10T15:23:08;100086.34;;;35.76;13.50
39309;BME280;26019;47.510;19.122;2022-07-10T15:33:11;100094.34;;;35.29;13.86
39309;BME280;26019;47.510;19.122;2022-07-10T15:43:15;100085.72;;;33.39;15.44
39309;BME280;26019;47.510;19.122;2022-07-10T15:53:16;100087.66;;;33.96;15.16
39309;BME280;26019;47.510;19.122;2022-07-10T16:03:18;100085.94;;;34.36;14.78
39309;BME280;26019;47.510;19.122;2022-07-10T16:13:20;100090.63;;;32.21;15.80
39309;BME280;26019;47.510;19.122;2022-07-10T16:23:23;100103.25;;;32.11;16.28
39309;BME280;26019;47.510;19.122;2022-07-10T16:33:25;100087.28;;;31.65;16.69
39309;BME280;26019;47.510;19.122;2022-07-10T16:43:30;100091.53;;;29.97;18.20
39309;BME280;26019;47.510;19.122;2022-07-10T16:53:37;100110.56;;;29.43;18.65
39309;BME280;26019;47.510;19.122;2022-07-10T17:04:00;100119.47;;;30.12;18.69
39309;BME280;26019;47.510;19.122;2022-07-10T17:14:02;100125.88;;;27.60;21.27
39309;BME280;26019;47.510;19.122;2022-07-10T17:24:08;100124.41;;;24.67;25.05
39309;BME280;26019;47.510;19.122;2022-07-10T17:34:10;100152.28;;;21.99;28.48
39309;BME280;26019;47.510;19.122;2022-07-10T17:44:32;100126.84;;;21.01;30.48
39309;BME280;26019;47.510;19.122;2022-07-10T17:54:34;100159.22;;;20.49;31.22
39309;BME280;26019;47.510;19.122;2022-07-10T18:04:35;100187.84;;;20.36;31.17
39309;BME280;26019;47.510;19.122;2022-07-10T18:14:37;100207.66;;;19.67;32.84
39309;BME280;26019;47.510;19.122;2022-07-10T18:24:39;100201.19;;;19.36;33.66
39309;BME280;26019;47.510;19.122;2022-07-10T18:34:42;100220.59;;;19.32;35.05
39309;BME280;26019;47.510;19.122;2022-07-10T18:44:46;100201.75;;;19.03;35.89
39309;BME280;26019;47.510;19.122;2022-07-10T18:54:53;100240.34;;;18.77;36.88
39309;BME280;26019;47.510;19.122;2022-07-10T19:04:56;100254.13;;;18.60;38.09
39309;BME280;26019;47.510;19.122;2022-07-10T19:15:00;100269.47;;;18.47;39.10
39309;BME280;26019;47.510;19.122;2022-07-10T19:25:06;100263.53;;;18.19;40.44
39309;BME280;26019;47.510;19.122;2022-07-10T19:35:09;100291.31;;;17.98;41.72
39309;BME280;26019;47.510;19.122;2022-07-10T19:45:13;100252.84;;;17.54;42.12
39309;BME280;26019;47.510;19.122;2022-07-10T19:55:15;100285.63;;;17.63;42.79
39309;BME280;26019;47.510;19.122;2022-07-10T20:05:17;100294.22;;;17.41;43.60
39309;BME280;26019;47.510;19.122;2022-07-10T20:15:21;100308.59;;;17.28;44.70
39309;BME280;26019;47.510;19.122;2022-07-10T20:25:23;100314.66;;;17.03;45.47
39309;BME280;26019;47.510;19.122;2022-07-10T20:35:33;100335.53;;;17.03;46.36
39309;BME280;26019;47.510;19.122;2022-07-10T20:45:35;100335.13;;;16.87;46.54
39309;BME280;26019;47.510;19.122;2022-07-10T20:55:37;100357.06;;;16.81;46.51
39309;BME280;26019;47.510;19.122;2022-07-10T21:05:39;100367.16;;;16.64;47.47
39309;BME280;26019;47.510;19.122;2022-07-10T21:15:41;100375.38;;;16.51;48.56
39309;BME280;26019;47.510;19.122;2022-07-10T21:25:44;100375.00;;;16.34;48.93
39309;BME280;26019;47.510;19.122;2022-07-10T21:35:48;100368.47;;;16.19;49.02
39309;BME280;26019;47.510;19.122;2022-07-10T21:45:50;100388.84;;;16.06;49.86
39309;BME280;26019;47.510;19.122;2022-07-10T21:55:51;100399.91;;;15.81;50.75
39309;BME280;26019;47.510;19.122;2022-07-10T22:05:55;100407.00;;;15.74;51.92
39309;BME280;26019;47.510;19.122;2022-07-10T22:15:57;100401.91;;;15.70;52.44
39309;BME280;26019;47.510;19.122;2022-07-10T22:25:59;100404.22;;;15.47;53.08
39309;BME280;26019;47.510;19.122;2022-07-10T22:36:01;100403.56;;;15.39;53.85
39309;BME280;26019;47.510;19.122;2022-07-10T22:46:02;100399.66;;;15.21;55.07
39309;BME280;26019;47.510;19.122;2022-07-10T22:56:04;100408.56;;;15.11;55.82
39309;BME280;26019;47.510;19.122;2022-07-10T23:06:08;100415.56;;;15.08;56.65
39309;BME280;26019;47.510;19.122;2022-07-10T23:16:11;100403.00;;;14.88;57.85
39309;BME280;26019;47.510;19.122;2022-07-10T23:26:14;100408.56;;;14.71;59.30
39309;BME280;26019;47.510;19.122;2022-07-10T23:36:16;100401.03;;;14.57;60.80
39309;BME280;26019;47.510;19.122;2022-07-10T23:46:18;100410.53;;;14.58;61.42
39309;BME280;26019;47.510;19.122;2022-07-10T23:56:19;100403.03;;;14.44;62.01
